Milan Army Ammunition Plant, Tennessee
Current Conditions -  °F | °C
As of 4:53 PM on Friday 19 Dec 2014 (Local Time) from KMKL Reporting Station
Clear Clear  
Wind Chill:   Ceiling: Unl
Heat Index:   Visibility: 10mi
Dew Point: -1°   Wind: 7mph
Humidity: 65%   Direction: 30°NNE
Pressure: 30.22"   Gusts: NA
Location:  35.9258°N, 88.7624°W
Report Text: KMKL 192253Z 03006KT 10SM CLR 06/M01 A3022 RMK AO2 SLP235 T00561006
Loading
Personal Weather Stations






























Interactive Weather Map New forecast layout! Learn more

10-Day Weather Forecast

Advertisements
Track Severe Weather on mobile